Time;durP1;ratioP1;P1;durP2;ratioP2;P2;SDS_P1;SDS_P2;PMS_P1;PMS_P2;Temp;Humidity;BMP_temperature;BMP_pressure;BME280_temperature;BME280_humidity;BME280_pressure;Samples;Min_cycle;Max_cycle;Signal;HPM_P1;HPM_P2
2021/12/15 00:01:22;;;;;;;99.35;37.08;;;;;;;;;;5136114;27;19984;-73
2021/12/15 00:03:48;;;;;;;124.82;39.13;;;;;;;;;;5156594;27;20478;-72
2021/12/15 00:06:18;;;;;;;101.07;37.80;;;;;;;;;;5157888;27;20090;-72
2021/12/15 00:08:45;;;;;;;99.18;37.35;;;;;;;;;;5157616;27;20074;-72
2021/12/15 00:11:12;;;;;;;99.78;38.05;;;;;;;;;;5158655;27;20054;-72
2021/12/15 00:13:39;;;;;;;97.38;38.00;;;;;;;;;;5158476;27;20133;-73
2021/12/15 00:16:06;;;;;;;101.68;36.85;;;;;;;;;;5139447;27;20198;-73
2021/12/15 00:18:32;;;;;;;108.47;37.53;;;;;;;;;;5158107;27;20043;-71
2021/12/15 00:20:58;;;;;;;99.18;37.42;;;;;;;;;;5158016;27;20049;-72
2021/12/15 00:23:24;;;;;;;108.88;37.10;;;;;;;;;;5139417;27;20091;-73
2021/12/15 00:25:50;;;;;;;103.65;36.80;;;;;;;;;;5158338;27;20045;-74
2021/12/15 00:28:16;;;;;;;98.90;35.92;;;;;;;;;;5157483;27;20483;-71
2021/12/15 00:30:42;;;;;;;94.18;37.53;;;;;;;;;;5139688;27;20054;-72
2021/12/15 00:33:08;;;;;;;111.72;37.47;;;;;;;;;;5157783;27;20399;-72
2021/12/15 00:35:36;;;;;;;101.10;35.10;;;;;;;;;;5157570;27;20407;-74
2021/12/15 00:38:02;;;;;;;116.05;35.75;;;;;;;;;;5157248;27;20054;-74
2021/12/15 00:40:29;;;;;;;102.22;37.90;;;;;;;;;;5156980;27;20544;-71
2021/12/15 00:42:56;;;;;;;99.75;36.35;;;;;;;;;;5157526;27;20071;-72
2021/12/15 00:45:26;;;;;;;95.38;34.65;;;;;;;;;;5122896;27;20039;-71
2021/12/15 00:47:53;;;;;;;87.82;33.97;;;;;;;;;;5139138;27;20127;-70
2021/12/15 00:50:20;;;;;;;101.32;35.08;;;;;;;;;;5157119;27;20485;-70
2021/12/15 00:52:48;;;;;;;97.28;36.10;;;;;;;;;;5156889;27;20125;-70
2021/12/15 00:55:16;;;;;;;88.22;34.28;;;;;;;;;;5139364;27;20488;-71
2021/12/15 00:57:43;;;;;;;96.70;34.17;;;;;;;;;;5157268;27;20042;-70
2021/12/15 01:00:12;;;;;;;91.20;34.25;;;;;;;;;;5157245;27;20099;-73
2021/12/15 01:02:39;;;;;;;86.68;34.70;;;;;;;;;;5156952;27;20035;-72
2021/12/15 01:05:05;;;;;;;85.32;33.72;;;;;;;;;;5157341;27;20085;-71
2021/12/15 01:07:32;;;;;;;88.70;35.58;;;;;;;;;;5138470;27;20095;-71
2021/12/15 01:09:59;;;;;;;97.07;35.03;;;;;;;;;;5138244;27;20413;-73
2021/12/15 01:12:49;;;;;;;82.43;34.15;;;;;;;;;;5156801;27;20050;-73
2021/12/15 01:20:35;;;;;;;87.78;36.13;;;;;;;;;;5139046;27;20370;-71
2021/12/15 01:23:04;;;;;;;88.72;34.63;;;;;;;;;;5156767;27;20107;-72
2021/12/15 01:25:51;;;;;;;84.63;35.13;;;;;;;;;;5157001;27;20042;-72
2021/12/15 01:28:17;;;;;;;85.05;33.92;;;;;;;;;;5156604;27;20047;-71
2021/12/15 01:30:44;;;;;;;91.15;35.28;;;;;;;;;;5157305;27;20091;-69
2021/12/15 01:33:11;;;;;;;93.35;34.78;;;;;;;;;;5156183;27;20065;-72
2021/12/15 01:35:39;;;;;;;88.75;35.97;;;;;;;;;;5156382;27;20471;-69
2021/12/15 01:38:06;;;;;;;88.88;37.20;;;;;;;;;;5156232;27;20414;-72
2021/12/15 01:40:34;;;;;;;97.30;36.72;;;;;;;;;;5155942;27;20078;-71
2021/12/15 01:43:12;;;;;;;94.85;36.92;;;;;;;;;;5155968;27;20062;-74
2021/12/15 01:48:23;;;;;;;89.40;37.85;;;;;;;;;;5156842;27;20478;-72
2021/12/15 01:50:50;;;;;;;89.40;35.55;;;;;;;;;;5156085;27;20093;-73
2021/12/15 01:53:17;;;;;;;92.07;36.42;;;;;;;;;;5155920;27;20092;-73
2021/12/15 01:55:43;;;;;;;87.45;36.92;;;;;;;;;;5156351;27;20426;-71
2021/12/15 01:58:09;;;;;;;101.00;37.88;;;;;;;;;;5156662;27;20055;-73
2021/12/15 02:00:40;;;;;;;97.57;37.63;;;;;;;;;;5155742;27;20428;-73
2021/12/15 02:03:06;;;;;;;94.50;36.67;;;;;;;;;;5155902;27;20043;-71
2021/12/15 02:05:32;;;;;;;102.72;38.97;;;;;;;;;;5155252;27;20470;-72
2021/12/15 02:08:00;;;;;;;103.68;39.17;;;;;;;;;;5155845;27;20039;-72
2021/12/15 02:10:29;;;;;;;93.95;39.03;;;;;;;;;;5156717;27;20090;-71
2021/12/15 02:12:55;;;;;;;96.88;39.53;;;;;;;;;;5155641;27;20061;-73
2021/12/15 02:15:21;;;;;;;;;;;;;;;;;;5156123;27;20043;-73
2021/12/15 02:17:47;;;;;;;99.38;39.30;;;;;;;;;;5137800;27;19999;-72
2021/12/15 02:20:15;;;;;;;87.57;37.65;;;;;;;;;;5155639;27;20432;-73
2021/12/15 02:22:42;;;;;;;103.40;39.85;;;;;;;;;;5155905;27;20133;-72
2021/12/15 02:25:10;;;;;;;;;;;;;;;;;;5156732;27;20047;-74
2021/12/15 02:27:37;;;;;;;89.57;36.28;;;;;;;;;;5155838;27;19958;-72
2021/12/15 02:30:40;;;;;;;104.70;39.70;;;;;;;;;;5155549;27;20039;-71
2021/12/15 02:34:01;;;;;;;98.20;37.20;;;;;;;;;;5156198;27;20364;-72
2021/12/15 02:38:41;;;;;;;112.53;38.60;;;;;;;;;;5155255;27;20099;-69
2021/12/15 02:41:23;;;;;;;97.07;38.97;;;;;;;;;;5155369;27;20134;-73
2021/12/15 02:43:50;;;;;;;111.25;38.75;;;;;;;;;;5156079;27;20057;-74
2021/12/15 02:46:16;;;;;;;100.57;38.15;;;;;;;;;;5137627;27;20041;-73
2021/12/15 02:48:42;;;;;;;105.80;38.83;;;;;;;;;;5155237;27;20110;-76
2021/12/15 02:51:09;;;;;;;93.15;36.80;;;;;;;;;;5155180;27;20054;-72
2021/12/15 02:53:35;;;;;;;119.07;40.72;;;;;;;;;;5155121;27;20061;-73
2021/12/15 02:56:01;;;;;;;101.70;39.28;;;;;;;;;;5136774;27;20049;-70
2021/12/15 02:58:32;;;;;;;111.70;39.83;;;;;;;;;;5155228;27;20050;-73
2021/12/15 03:01:05;;;;;;;99.72;39.80;;;;;;;;;;5154907;27;20513;-73
2021/12/15 03:06:07;;;;;;;101.25;38.83;;;;;;;;;;5136737;27;20046;-72
2021/12/15 03:08:54;;;;;;;103.68;40.45;;;;;;;;;;5155009;27;20046;-72
2021/12/15 03:16:51;;;;;;;100.57;38.55;;;;;;;;;;5154967;27;20103;-73
2021/12/15 03:19:17;;;;;;;93.13;38.90;;;;;;;;;;5136378;27;20150;-72
2021/12/15 03:21:44;;;;;;;90.18;38.35;;;;;;;;;;5154884;27;20046;-69
2021/12/15 03:24:17;;;;;;;99.10;40.75;;;;;;;;;;5136624;27;20049;-74
2021/12/15 03:26:51;;;;;;;95.03;38.95;;;;;;;;;;5154723;27;20042;-73
2021/12/15 03:35:03;;;;;;;102.85;39.78;;;;;;;;;;5155031;27;20047;-74
2021/12/15 03:37:31;;;;;;;94.57;39.75;;;;;;;;;;5155604;27;20051;-72
2021/12/15 03:40:11;;;;;;;94.65;39.15;;;;;;;;;;5158748;27;20117;-73
2021/12/15 03:42:40;;;;;;;97.90;40.58;;;;;;;;;;5140066;27;20124;-73
2021/12/15 03:45:09;;;;;;;91.60;40.17;;;;;;;;;;5158619;27;20558;-73
2021/12/15 03:47:37;;;;;;;97.05;39.42;;;;;;;;;;5159056;27;20043;-74
2021/12/15 03:50:08;;;;;;;106.05;40.20;;;;;;;;;;5159482;27;20383;-72
2021/12/15 03:52:35;;;;;;;103.03;40.88;;;;;;;;;;5158930;27;20050;-73
2021/12/15 03:55:00;;;;;;;;;;;;;;;;;;5158666;27;20043;-70
2021/12/15 03:57:27;;;;;;;100.90;42.00;;;;;;;;;;5157695;27;19926;-75
2021/12/15 03:59:54;;;;;;;101.47;41.22;;;;;;;;;;5157842;27;20053;-71
2021/12/15 04:02:21;;;;;;;100.88;42.47;;;;;;;;;;5140606;27;20091;-72
2021/12/15 04:04:47;;;;;;;;;;;;;;;;;;5159152;27;20053;-73
2021/12/15 04:07:14;;;;;;;97.68;42.97;;;;;;;;;;5157334;27;20398;-71
2021/12/15 04:09:41;;;;;;;96.22;41.53;;;;;;;;;;5157308;27;20098;-71
2021/12/15 04:12:07;;;;;;;108.53;40.92;;;;;;;;;;5139510;27;20049;-69
2021/12/15 04:14:42;;;;;;;110.72;43.03;;;;;;;;;;5157835;27;20047;-71
2021/12/15 04:17:26;;;;;;;107.97;41.75;;;;;;;;;;5140036;27;20123;-72
2021/12/15 04:19:52;;;;;;;97.03;39.35;;;;;;;;;;5158790;27;20047;-73
2021/12/15 04:22:18;;;;;;;92.53;39.08;;;;;;;;;;5157252;27;20524;-70
2021/12/15 04:24:45;;;;;;;85.28;38.42;;;;;;;;;;5158190;27;20042;-71
2021/12/15 04:27:11;;;;;;;90.63;40.13;;;;;;;;;;5139480;27;20046;-73
2021/12/15 04:29:39;;;;;;;87.60;38.40;;;;;;;;;;5139171;27;20042;-71
2021/12/15 04:32:08;;;;;;;90.03;37.17;;;;;;;;;;5158213;27;20142;-73
2021/12/15 04:34:34;;;;;;;89.18;38.13;;;;;;;;;;5157827;27;20043;-72
2021/12/15 04:37:00;;;;;;;93.90;37.03;;;;;;;;;;5157634;27;20149;-71
2021/12/15 04:39:28;;;;;;;87.18;36.80;;;;;;;;;;5157968;27;20043;-72
2021/12/15 04:41:55;;;;;;;82.28;38.20;;;;;;;;;;5156875;27;20478;-73
2021/12/15 04:44:25;;;;;;;88.95;37.95;;;;;;;;;;5157467;27;20494;-70
2021/12/15 04:46:58;;;;;;;88.47;35.58;;;;;;;;;;5137965;27;20050;-72
2021/12/15 04:49:25;;;;;;;95.10;38.72;;;;;;;;;;5157362;27;20050;-74
2021/12/15 04:51:51;;;;;;;92.32;35.65;;;;;;;;;;5157249;27;20058;-69
2021/12/15 04:54:18;;;;;;;91.45;37.50;;;;;;;;;;5157404;27;20038;-73
2021/12/15 04:56:44;;;;;;;83.85;37.10;;;;;;;;;;5156695;27;20398;-71
2021/12/15 04:59:10;;;;;;;81.88;35.55;;;;;;;;;;5157228;27;20095;-72
2021/12/15 05:01:37;;;;;;;86.97;37.05;;;;;;;;;;5157263;27;20129;-72
2021/12/15 05:04:08;;;;;;;88.43;36.55;;;;;;;;;;5156507;27;20047;-70
2021/12/15 05:06:35;;;;;;;77.30;30.58;;;;;;;;;;5156989;27;20089;-69
2021/12/15 05:09:01;;;;;;;87.38;35.28;;;;;;;;;;5156001;27;20059;-74
2021/12/15 05:11:27;;;;;;;92.10;36.17;;;;;;;;;;5156753;27;20059;-72
2021/12/15 05:13:53;;;;;;;83.32;36.15;;;;;;;;;;5156620;27;20143;-73
2021/12/15 05:16:19;;;;;;;94.40;36.28;;;;;;;;;;5157534;27;20045;-72
2021/12/15 05:18:46;;;;;;;86.88;35.47;;;;;;;;;;5156914;27;20099;-72
2021/12/15 05:21:12;;;;;;;86.82;36.70;;;;;;;;;;5156441;27;20050;-73
2021/12/15 05:23:39;;;;;;;86.97;37.35;;;;;;;;;;5156185;27;20535;-69
2021/12/15 05:26:05;;;;;;;91.28;36.08;;;;;;;;;;5138606;27;20057;-70
2021/12/15 05:28:31;;;;;;;88.07;35.97;;;;;;;;;;5137739;27;20410;-72
2021/12/15 05:30:57;;;;;;;88.05;36.90;;;;;;;;;;5138155;27;20049;-72
2021/12/15 05:33:25;;;;;;;94.38;38.33;;;;;;;;;;5156646;27;20102;-73
2021/12/15 05:35:51;;;;;;;94.97;38.17;;;;;;;;;;5138204;27;20054;-71
2021/12/15 05:38:18;;;;;;;94.70;36.65;;;;;;;;;;5156457;27;20160;-74
2021/12/15 05:40:45;;;;;;;93.40;35.88;;;;;;;;;;5156467;27;20043;-73
2021/12/15 05:43:11;;;;;;;89.50;37.78;;;;;;;;;;5155435;27;20046;-70
2021/12/15 05:45:38;;;;;;;87.38;37.17;;;;;;;;;;5137323;27;20411;-71
2021/12/15 05:48:09;;;;;;;91.00;36.63;;;;;;;;;;5156188;27;20038;-71
2021/12/15 05:50:35;;;;;;;90.13;35.38;;;;;;;;;;5155929;27;20129;-71
2021/12/15 05:53:01;;;;;;;92.15;34.20;;;;;;;;;;5155098;27;20046;-72
2021/12/15 05:55:28;;;;;;;98.45;38.30;;;;;;;;;;5156428;27;20080;-72
2021/12/15 05:57:54;;;;;;;94.65;38.30;;;;;;;;;;5155509;27;20147;-71
2021/12/15 06:00:22;;;;;;;95.72;36.60;;;;;;;;;;5137145;27;20520;-72
2021/12/15 06:02:49;;;;;;;80.68;33.90;;;;;;;;;;5155800;27;20073;-70
2021/12/15 06:05:15;;;;;;;87.60;35.97;;;;;;;;;;5155560;27;20034;-71
2021/12/15 06:07:41;;;;;;;;;;;;;;;;;;5138367;27;20324;-72
2021/12/15 06:10:08;;;;;;;85.03;35.53;;;;;;;;;;5156209;27;19926;-71
2021/12/15 06:12:35;;;;;;;87.70;36.65;;;;;;;;;;5154571;27;20047;-70
2021/12/15 06:15:02;;;;;;;90.97;37.88;;;;;;;;;;5154874;27;20410;-74
2021/12/15 06:17:29;;;;;;;94.57;35.40;;;;;;;;;;5154277;27;20179;-71
2021/12/15 06:19:55;;;;;;;;;;;;;;;;;;5155780;27;20043;-70
2021/12/15 06:22:25;;;;;;;96.53;36.33;;;;;;;;;;5154888;27;20014;-74
2021/12/15 06:24:52;;;;;;;84.93;35.53;;;;;;;;;;5154795;27;20051;-73
2021/12/15 06:27:20;;;;;;;79.50;36.13;;;;;;;;;;5154952;27;20099;-72
2021/12/15 06:29:46;;;;;;;89.00;36.03;;;;;;;;;;5155765;27;20095;-73
2021/12/15 06:32:13;;;;;;;98.47;37.75;;;;;;;;;;5155296;27;20042;-71
2021/12/15 06:34:39;;;;;;;93.95;39.35;;;;;;;;;;5155230;27;20081;-73
2021/12/15 06:37:05;;;;;;;85.50;36.40;;;;;;;;;;5136954;27;20496;-72
2021/12/15 06:39:31;;;;;;;;;;;;;;;;;;5137508;27;20046;-70
2021/12/15 06:41:57;;;;;;;86.47;37.63;;;;;;;;;;5155309;27;19964;-71
2021/12/15 06:44:25;;;;;;;87.75;37.08;;;;;;;;;;5155589;27;20042;-73
2021/12/15 07:00:27;;;;;;;77.35;31.77;;;;;;;;;;5136183;27;20386;-71
2021/12/15 07:02:54;;;;;;;84.15;33.88;;;;;;;;;;5154394;27;20065;-72
2021/12/15 07:05:21;;;;;;;81.28;33.05;;;;;;;;;;5153400;27;20119;-72
2021/12/15 07:07:48;;;;;;;85.97;34.40;;;;;;;;;;5154070;27;20049;-72
2021/12/15 07:10:16;;;;;;;80.25;31.42;;;;;;;;;;5154646;27;20058;-72
2021/12/15 07:12:42;;;;;;;73.40;30.08;;;;;;;;;;5135959;27;20050;-72
2021/12/15 07:15:09;;;;;;;80.10;31.33;;;;;;;;;;5159001;27;20041;-72
2021/12/15 07:17:36;;;;;;;86.60;31.25;;;;;;;;;;5140094;27;20081;-72
2021/12/15 07:20:29;;;;;;;72.93;32.35;;;;;;;;;;5158390;27;20509;-73
2021/12/15 07:22:53;;;;;;;71.13;32.53;;;;;;;;;;5139957;27;20051;-73
2021/12/15 07:25:21;;;;;;;74.35;31.95;;;;;;;;;;5157997;27;20466;-75
2021/12/15 07:27:47;;;;;;;63.90;30.35;;;;;;;;;;5158126;27;20430;-71
2021/12/15 07:30:13;;;;;;;;;;;;;;;;;;5158601;27;20042;-75
2021/12/15 07:32:40;;;;;;;70.57;31.50;;;;;;;;;;5157747;27;19926;-77
2021/12/15 07:35:07;;;;;;;68.32;30.65;;;;;;;;;;5157514;27;20038;-71
2021/12/15 07:37:33;;;;;;;74.53;31.60;;;;;;;;;;5157339;27;20384;-71
2021/12/15 07:40:00;;;;;;;68.80;31.70;;;;;;;;;;5157476;27;20042;-74
2021/12/15 07:42:36;;;;;;;73.15;30.67;;;;;;;;;;5157362;27;20046;-74
2021/12/15 07:45:06;;;;;;;71.45;31.10;;;;;;;;;;5158265;27;20080;-74
2021/12/15 07:47:32;;;;;;;75.45;31.10;;;;;;;;;;5158114;27;20091;-67
2021/12/15 07:50:01;;;;;;;71.93;28.58;;;;;;;;;;5158447;27;20498;-73
2021/12/15 07:52:27;;;;;;;70.72;30.05;;;;;;;;;;5157581;27;20501;-72
2021/12/15 07:54:53;;;;;;;64.80;28.73;;;;;;;;;;5158085;27;20047;-72
2021/12/15 07:57:21;;;;;;;62.95;29.20;;;;;;;;;;5157863;27;20046;-73
2021/12/15 07:59:48;;;;;;;77.15;29.55;;;;;;;;;;5158094;27;20053;-71
2021/12/15 08:02:14;;;;;;;59.90;26.48;;;;;;;;;;5155721;27;20138;-71
2021/12/15 08:04:40;;;;;;;61.97;27.00;;;;;;;;;;5155233;27;20058;-70
2021/12/15 08:07:06;;;;;;;59.58;25.30;;;;;;;;;;5154884;27;20130;-72
2021/12/15 08:09:33;;;;;;;63.08;26.83;;;;;;;;;;5154324;27;20459;-73
2021/12/15 08:11:59;;;;;;;64.90;26.15;;;;;;;;;;5154601;27;20508;-70
2021/12/15 08:14:25;;;;;;;55.80;25.17;;;;;;;;;;5155046;27;20100;-72
2021/12/15 08:16:51;;;;;;;57.88;24.92;;;;;;;;;;5155385;27;20046;-73
2021/12/15 08:19:19;;;;;;;52.83;24.77;;;;;;;;;;5154957;27;20555;-73
2021/12/15 08:21:45;;;;;;;54.35;22.85;;;;;;;;;;5119389;27;20042;-74
2021/12/15 08:24:11;;;;;;;48.50;21.20;;;;;;;;;;5154779;27;20050;-68
2021/12/15 08:26:37;;;;;;;56.03;22.63;;;;;;;;;;5135967;27;20043;-69
2021/12/15 08:29:04;;;;;;;49.20;20.80;;;;;;;;;;5155146;27;20054;-72
2021/12/15 08:31:30;;;;;;;43.67;20.65;;;;;;;;;;5155792;27;20046;-74
2021/12/15 08:33:56;;;;;;;41.63;20.60;;;;;;;;;;5155796;27;20082;-72
2021/12/15 08:36:22;;;;;;;42.22;19.95;;;;;;;;;;5155019;27;20039;-71
2021/12/15 08:38:49;;;;;;;47.75;20.13;;;;;;;;;;5153686;27;20065;-71
2021/12/15 08:41:17;;;;;;;44.75;17.63;;;;;;;;;;5154112;27;20052;-70
2021/12/15 08:43:43;;;;;;;54.75;21.23;;;;;;;;;;5135670;27;20038;-71
2021/12/15 08:46:14;;;;;;;52.28;20.98;;;;;;;;;;5153551;27;20394;-72
2021/12/15 08:48:40;;;;;;;52.40;22.08;;;;;;;;;;5136269;27;20039;-72
2021/12/15 08:51:06;;;;;;;;;;;;;;;;;;5154919;27;20047;-75
2021/12/15 08:53:33;;;;;;;55.60;22.08;;;;;;;;;;5155254;27;19926;-74
2021/12/15 08:55:59;;;;;;;;;;;;;;;;;;5155223;27;20375;-72
2021/12/15 08:58:25;;;;;;;47.55;19.90;;;;;;;;;;5135662;27;19983;-73
2021/12/15 09:00:52;;;;;;;48.63;22.67;;;;;;;;;;5137284;27;20494;-73
2021/12/15 09:03:18;;;;;;;48.97;21.45;;;;;;;;;;5154721;27;20042;-73
2021/12/15 09:05:45;;;;;;;47.40;20.55;;;;;;;;;;5153838;27;20092;-72
2021/12/15 09:08:11;;;;;;;;;;;;;;;;;;5154936;27;20104;-70
2021/12/15 09:10:39;;;;;;;49.35;21.45;;;;;;;;;;5154631;27;20013;-69
2021/12/15 09:13:05;;;;;;;48.65;21.92;;;;;;;;;;5154674;27;20057;-71
2021/12/15 09:15:31;;;;;;;51.35;21.13;;;;;;;;;;5154686;27;20038;-71
2021/12/15 09:17:58;;;;;;;45.92;21.80;;;;;;;;;;5154572;27;20057;-73
2021/12/15 09:20:26;;;;;;;44.53;20.63;;;;;;;;;;5154693;27;20061;-72
2021/12/15 09:22:52;;;;;;;41.05;18.65;;;;;;;;;;5154834;27;20398;-70
2021/12/15 09:25:18;;;;;;;51.15;19.92;;;;;;;;;;5154738;27;20078;-72
2021/12/15 09:27:45;;;;;;;51.88;21.25;;;;;;;;;;5155246;27;20081;-70
2021/12/15 09:30:13;;;;;;;46.50;20.63;;;;;;;;;;5154801;27;20494;-71
2021/12/15 09:32:39;;;;;;;50.83;20.88;;;;;;;;;;5154495;27;20083;-72
2021/12/15 09:35:06;;;;;;;46.22;19.42;;;;;;;;;;5153689;27;20051;-71
2021/12/15 09:37:32;;;;;;;45.10;20.55;;;;;;;;;;5154202;27;20410;-73
2021/12/15 09:40:00;;;;;;;54.10;20.73;;;;;;;;;;5154712;27;20039;-73
2021/12/15 09:42:34;;;;;;;46.15;21.65;;;;;;;;;;5154191;27;20161;-74
2021/12/15 09:45:17;;;;;;;45.22;18.88;;;;;;;;;;5154665;27;20047;-69
2021/12/15 10:04:18;;;;;;;35.15;15.38;;;;;;;;;;5138415;27;20508;-74
2021/12/15 10:17:46;;;;;;;28.48;12.25;;;;;;;;;;5153616;27;20527;-73
2021/12/15 10:20:20;;;;;;;29.90;12.75;;;;;;;;;;5134827;27;20054;-73
2021/12/15 10:22:50;;;;;;;31.50;13.52;;;;;;;;;;5152109;27;20125;-76
2021/12/15 10:25:20;;;;;;;28.23;14.07;;;;;;;;;;5152461;27;20098;-74
2021/12/15 10:28:06;;;;;;;28.85;13.60;;;;;;;;;;5151883;27;20046;-72
2021/12/15 10:30:43;;;;;;;31.13;15.65;;;;;;;;;;5154005;27;20046;-73
2021/12/15 10:33:15;;;;;;;33.03;17.05;;;;;;;;;;5156275;27;20039;-71
2021/12/15 10:35:53;;;;;;;31.58;13.98;;;;;;;;;;5153782;27;20406;-74
2021/12/15 10:38:21;;;;;;;34.25;16.38;;;;;;;;;;5134217;27;20046;-74
2021/12/15 10:41:07;;;;;;;34.47;16.00;;;;;;;;;;5153354;27;20081;-72
2021/12/15 10:43:51;;;;;;;38.38;16.60;;;;;;;;;;5152511;27;20121;-73
2021/12/15 10:46:20;;;;;;;32.33;15.18;;;;;;;;;;5153174;27;20039;-74
2021/12/15 10:48:57;;;;;;;33.10;15.90;;;;;;;;;;5152787;27;20447;-73
2021/12/15 10:51:29;;;;;;;32.75;15.18;;;;;;;;;;5153388;27;20102;-74
2021/12/15 10:53:57;;;;;;;32.30;15.98;;;;;;;;;;5152514;27;20546;-70
2021/12/15 10:56:25;;;;;;;36.25;16.00;;;;;;;;;;5152784;27;20042;-73
2021/12/15 10:58:57;;;;;;;35.88;15.90;;;;;;;;;;5153023;27;20054;-73
2021/12/15 11:01:45;;;;;;;30.67;14.20;;;;;;;;;;5152925;27;20046;-73
2021/12/15 11:04:19;;;;;;;30.42;15.00;;;;;;;;;;5153011;27;20118;-74
2021/12/15 11:06:46;;;;;;;33.00;14.38;;;;;;;;;;5152864;27;20126;-74
2021/12/15 11:09:21;;;;;;;30.00;14.55;;;;;;;;;;5152913;27;20462;-71
2021/12/15 11:12:06;;;;;;;31.73;14.18;;;;;;;;;;5153938;27;20077;-67
2021/12/15 11:14:34;;;;;;;33.45;14.77;;;;;;;;;;5152981;27;20097;-68
2021/12/15 11:17:04;;;;;;;32.30;13.70;;;;;;;;;;5152754;27;20050;-71
2021/12/15 11:19:48;;;;;;;33.97;14.45;;;;;;;;;;5152406;27;20474;-71
2021/12/15 11:22:31;;;;;;;29.45;13.70;;;;;;;;;;5152808;27;20134;-73
2021/12/15 11:24:57;;;;;;;33.03;13.82;;;;;;;;;;5134417;27;20138;-72
2021/12/15 11:27:23;;;;;;;34.72;14.90;;;;;;;;;;5152531;27;20129;-73
2021/12/15 11:29:49;;;;;;;31.15;13.32;;;;;;;;;;5152912;27;20069;-72
2021/12/15 11:32:34;;;;;;;26.13;11.70;;;;;;;;;;5152798;27;20042;-71
2021/12/15 11:35:12;;;;;;;33.20;13.15;;;;;;;;;;5152397;27;20050;-72
2021/12/15 11:37:45;;;;;;;23.17;11.65;;;;;;;;;;5152526;27;20082;-72
2021/12/15 11:40:11;;;;;;;26.17;12.10;;;;;;;;;;5152450;27;20119;-72
2021/12/15 11:42:37;;;;;;;;;;;;;;;;;;5152566;27;20492;-72
2021/12/15 11:45:05;;;;;;;26.75;11.85;;;;;;;;;;5152801;27;19919;-72
2021/12/15 11:47:33;;;;;;;23.90;11.18;;;;;;;;;;5153014;27;20055;-71
2021/12/15 11:50:06;;;;;;;27.50;11.48;;;;;;;;;;5152826;27;20043;-68
2021/12/15 11:52:43;;;;;;;24.15;9.60;;;;;;;;;;5134176;27;20387;-72
2021/12/15 11:55:24;;;;;;;24.17;9.98;;;;;;;;;;5152900;27;20134;-72
2021/12/15 11:57:50;;;;;;;23.27;8.25;;;;;;;;;;5152808;27;20393;-72
2021/12/15 12:00:17;;;;;;;20.58;8.30;;;;;;;;;;5155824;27;20043;-70
2021/12/15 12:02:47;;;;;;;19.08;6.35;;;;;;;;;;5156858;27;20098;-74
2021/12/15 12:05:14;;;;;;;18.85;6.65;;;;;;;;;;5137816;27;20041;-74
2021/12/15 12:07:46;;;;;;;21.08;6.43;;;;;;;;;;5157074;27;20102;-77
2021/12/15 12:10:20;;;;;;;18.17;6.53;;;;;;;;;;5156829;27;20054;-75
2021/12/15 12:12:57;;;;;;;16.20;6.82;;;;;;;;;;5156302;27;20051;-74
2021/12/15 12:15:25;;;;;;;19.05;6.85;;;;;;;;;;5157931;27;20221;-78
2021/12/15 12:17:53;;;;;;;18.95;6.75;;;;;;;;;;5156976;27;20154;-74
2021/12/15 12:20:20;;;;;;;16.65;6.65;;;;;;;;;;5139395;27;20043;-76
2021/12/15 12:22:47;;;;;;;16.98;6.10;;;;;;;;;;5158332;27;20501;-72
2021/12/15 12:25:15;;;;;;;17.73;7.13;;;;;;;;;;5158977;27;20082;-77
2021/12/15 12:27:43;;;;;;;18.08;6.35;;;;;;;;;;5156473;27;20129;-73
2021/12/15 12:30:11;;;;;;;17.70;6.32;;;;;;;;;;5120344;27;20043;-75
2021/12/15 12:32:38;;;;;;;18.73;5.85;;;;;;;;;;5137538;27;20186;-80
2021/12/15 12:35:06;;;;;;;18.77;6.10;;;;;;;;;;5155760;27;20040;-78
2021/12/15 12:37:32;;;;;;;19.98;5.40;;;;;;;;;;5156211;27;20425;-73
2021/12/15 12:40:04;;;;;;;23.75;6.90;;;;;;;;;;5155880;27;20047;-82
2021/12/15 12:42:36;;;;;;;18.17;5.80;;;;;;;;;;5155896;27;20046;-80
2021/12/15 12:45:38;;;;;;;17.42;6.22;;;;;;;;;;5155602;27;20042;-78
2021/12/15 12:48:43;;;;;;;14.05;5.05;;;;;;;;;;5124975;27;20059;-80
2021/12/15 12:59:31;;;;;;;17.73;5.80;;;;;;;;;;5155129;27;20043;-77
2021/12/15 13:01:58;;;;;;;14.07;5.75;;;;;;;;;;5136715;27;20103;-72
2021/12/15 13:04:35;;;;;;;15.85;5.68;;;;;;;;;;5155741;27;20061;-78
2021/12/15 13:07:01;;;;;;;;;;;;;;;;;;5156070;27;20053;-79
2021/12/15 13:09:41;;;;;;;15.57;5.03;;;;;;;;;;5154773;27;20266;-78
2021/12/15 13:12:19;;;;;;;18.63;5.43;;;;;;;;;;5136822;27;20129;-76
2021/12/15 13:14:45;;;;;;;19.08;6.05;;;;;;;;;;5137382;27;20415;-74
2021/12/15 13:17:19;;;;;;;17.83;5.53;;;;;;;;;;5137285;27;20083;-76
2021/12/15 13:19:45;;;;;;;18.33;4.97;;;;;;;;;;5136809;27;20061;-73
2021/12/15 13:22:38;;;;;;;11.45;4.28;;;;;;;;;;5136154;27;20055;-75
2021/12/15 13:30:56;;;;;;;12.52;3.97;;;;;;;;;;5155707;27;20133;-80
2021/12/15 13:33:27;;;;;;;13.80;3.72;;;;;;;;;;5154708;27;20057;-79
2021/12/15 13:35:57;;;;;;;13.57;4.00;;;;;;;;;;5155363;27;20038;-75
2021/12/15 13:38:32;;;;;;;13.55;4.10;;;;;;;;;;5154842;27;20039;-73
2021/12/15 13:41:03;;;;;;;10.90;3.50;;;;;;;;;;5134719;27;20130;-72
2021/12/15 13:43:35;;;;;;;13.73;3.92;;;;;;;;;;5153988;27;20171;-76
2021/12/15 13:46:02;;;;;;;13.50;3.63;;;;;;;;;;5154242;27;20046;-76
2021/12/15 13:48:28;;;;;;;;;;;;;;;;;;5153713;27;20050;-72
2021/12/15 13:50:55;;;;;;;11.32;3.33;;;;;;;;;;5152033;27;19919;-76
2021/12/15 13:53:31;;;;;;;13.02;3.67;;;;;;;;;;5152226;27;20507;-79
2021/12/15 13:55:57;;;;;;;12.00;3.60;;;;;;;;;;5152260;27;20125;-73
2021/12/15 13:58:23;;;;;;;11.75;3.60;;;;;;;;;;5153148;27;20042;-75
2021/12/15 14:00:55;;;;;;;14.93;4.00;;;;;;;;;;5152534;27;20083;-74
2021/12/15 14:03:30;;;;;;;11.05;3.50;;;;;;;;;;5153970;27;20181;-73
2021/12/15 14:06:05;;;;;;;13.25;3.28;;;;;;;;;;5153415;27;20045;-78
2021/12/15 14:08:38;;;;;;;9.50;3.25;;;;;;;;;;5154801;27;20039;-82
2021/12/15 14:11:18;;;;;;;10.38;2.90;;;;;;;;;;5155325;27;20055;-77
2021/12/15 14:13:46;;;;;;;12.70;4.00;;;;;;;;;;5155987;27;20087;-80
2021/12/15 14:16:12;;;;;;;12.48;3.55;;;;;;;;;;5153963;27;20099;-73
2021/12/15 14:18:38;;;;;;;;;;;;;;;;;;5153613;27;20099;-74
2021/12/15 14:21:04;;;;;;;11.55;3.50;;;;;;;;;;5152253;27;19919;-74
2021/12/15 14:23:41;;;;;;;10.98;3.38;;;;;;;;;;5152942;27;20058;-71
2021/12/15 14:26:09;;;;;;;14.68;4.13;;;;;;;;;;5153291;27;20038;-77
2021/12/15 14:28:37;;;;;;;14.77;3.70;;;;;;;;;;5118413;27;20137;-72
2021/12/15 14:31:10;;;;;;;12.93;3.88;;;;;;;;;;5153788;27;20046;-73
2021/12/15 14:33:43;;;;;;;12.50;3.83;;;;;;;;;;5153809;27;20483;-73
2021/12/15 14:36:12;;;;;;;15.05;3.90;;;;;;;;;;5153729;27;20094;-75
2021/12/15 14:38:43;;;;;;;13.00;3.75;;;;;;;;;;5152444;27;20135;-77
2021/12/15 14:41:24;;;;;;;11.82;3.75;;;;;;;;;;5152830;27;20149;-75
2021/12/15 14:44:10;;;;;;;14.65;3.85;;;;;;;;;;5153290;27;20145;-73
2021/12/15 14:46:39;;;;;;;13.15;4.00;;;;;;;;;;5153024;27;20261;-75
2021/12/15 14:49:05;;;;;;;12.18;3.55;;;;;;;;;;5152556;27;20106;-74
2021/12/15 14:51:31;;;;;;;11.98;3.50;;;;;;;;;;5152815;27;20050;-71
2021/12/15 14:53:58;;;;;;;13.02;3.58;;;;;;;;;;5153107;27;20501;-72
2021/12/15 14:56:42;;;;;;;10.52;3.20;;;;;;;;;;5153226;27;20047;-69
2021/12/15 14:59:08;;;;;;;13.32;3.78;;;;;;;;;;5152705;27;20054;-79
2021/12/15 15:01:35;;;;;;;13.68;3.55;;;;;;;;;;5154453;27;20049;-77
2021/12/15 15:04:02;;;;;;;12.30;3.42;;;;;;;;;;5154080;27;20054;-72
2021/12/15 15:06:29;;;;;;;11.98;3.58;;;;;;;;;;5134411;27;20043;-77
2021/12/15 15:09:28;;;;;;;9.05;3.20;;;;;;;;;;5135525;27;20561;-73
2021/12/15 15:11:55;;;;;;;16.42;3.17;;;;;;;;;;5108369;27;20051;-72
2021/12/15 15:14:47;;;;;;;12.63;3.53;;;;;;;;;;5153243;27;20078;-76
2021/12/15 15:17:28;;;;;;;10.75;3.35;;;;;;;;;;5150977;27;20077;-75
2021/12/15 15:19:57;;;;;;;9.63;2.95;;;;;;;;;;5153625;27;20386;-76
2021/12/15 15:22:25;;;;;;;10.95;3.50;;;;;;;;;;5154407;27;20070;-72
2021/12/15 15:24:52;;;;;;;9.38;2.92;;;;;;;;;;5153307;27;20039;-74
2021/12/15 15:27:19;;;;;;;10.82;3.03;;;;;;;;;;5153762;27;20096;-73
2021/12/15 15:29:48;;;;;;;7.93;2.92;;;;;;;;;;5136079;27;20432;-72
2021/12/15 15:32:17;;;;;;;7.88;2.67;;;;;;;;;;5154744;27;20051;-73
2021/12/15 15:34:43;;;;;;;10.52;3.00;;;;;;;;;;5155936;27;20103;-76
2021/12/15 15:37:14;;;;;;;11.57;3.00;;;;;;;;;;5158188;27;20089;-75
2021/12/15 15:39:40;;;;;;;10.10;3.22;;;;;;;;;;5158668;27;20099;-72
2021/12/15 15:42:06;;;;;;;10.45;3.00;;;;;;;;;;5157624;27;20069;-73
2021/12/15 15:44:37;;;;;;;9.77;3.17;;;;;;;;;;5158342;27;20049;-73
2021/12/15 15:47:04;;;;;;;13.63;3.60;;;;;;;;;;5158505;27;20079;-71
2021/12/15 15:49:30;;;;;;;11.48;3.60;;;;;;;;;;5158758;27;20042;-72
2021/12/15 15:51:57;;;;;;;10.35;3.55;;;;;;;;;;5158584;27;20320;-77
2021/12/15 15:54:28;;;;;;;12.18;3.80;;;;;;;;;;5139842;27;20042;-72
2021/12/15 15:56:54;;;;;;;8.38;3.15;;;;;;;;;;5140927;27;20092;-78